Historyczne dane pomiarowe

Dodano dane terminowe – wersja testowa.

Dane z okresu 1951-2019

Wersja bazy: 1.34 [2019-03-16, lista zmian], aktualizacja planowana na 2019-04-15

Dane meteo z obszaru Polski uzyskane na podstawie danych udostępnionych przez Instytut Meteorologii i Gospodarki Wodnej – Państwowy Instytut Badawczy.

 

Wybierz Datę:    

       

TemperaturaWilgotnośćZachmurzenieWiatrCiśnienieWidzialnośćZjawiska
 Data    tng td wb rh cc ccl cl cm ch dir g1 g2 mslp ppp      
1999-08-11 00:00:00 16.0--- 15.2 15.595wxwxwx2wx--1008.3 986.4 1.0---wx
1999-08-11 01:00:00 16.5--- 15.7 16.095wxwxwx1wx--1007.9 986.1----wx
1999-08-11 02:00:00 16.8--- 16.2 16.496wxwxwx2wx--1007.9 986.1----wxw1
1999-08-11 03:00:00 16.8--- 16.2 16.496wxwxwx1wx--1007.8 986.0----wx
1999-08-11 04:00:00 16.9--- 16.1 16.495wxwxwx2wx--1007.7 985.9----wxw1
1999-08-11 05:00:00 17.0--- 16.4 16.696wxwxwx3wx--1007.9 986.1----wx
1999-08-11 06:00:00 17.6--- 16.7 17.094wxwxwx3wx--1007.7 986.0 0.4---wxw1
1999-08-11 07:00:00 19.7--- 17.7 18.488wxwxwx3wx--1007.7 986.1----wx
1999-08-11 08:00:00 19.5--- 17.5 18.288wxwxwx3wx--1008.1 986.5----wx
1999-08-11 09:00:00 21.0--- 17.8 18.982wxwxwx4wx--1008.5 987.0----wx
1999-08-11 10:00:00 22.4--- 18.0 19.576wxwxwx3wx--1008.3 986.9----wx
1999-08-11 11:00:00 20.8--- 16.9 18.379wxwxwx2wx--1008.1 986.6----wx
1999-08-11 12:00:00 21.7--- 17.6 19.077wxwxwx2wx--1008.4 986.9 0.0---wx
1999-08-11 13:00:00 23.6--- 16.9 19.266wxwxwx2wx--1008.5 987.2----wx
1999-08-11 14:00:00 22.8--- 17.0 19.070wxwxwx1wx--1008.4 987.0----wx
1999-08-11 15:00:00 21.8--- 15.8 18.069wxwxwx4wx--1008.5 987.1----wx
1999-08-11 16:00:00 18.9--- 17.7 18.193wxwxwx1wx--1008.7 987.0----wx
1999-08-11 17:00:00 19.3--- 18.1 18.593wxwxwx1wx--1009.0 987.4----wx
1999-08-11 18:00:00 19.0--- 18.2 18.595wxwxwx0wx--1009.0 987.3 1.4---wxw1
1999-08-11 19:00:00 18.1--- 17.5 17.796wxwxwx0wx--1009.2 987.5----wx
1999-08-11 20:00:00 17.5--- 16.7 17.095wxwxwx2wx--1009.3 987.5----wx
1999-08-11 21:00:00 17.1--- 16.3 16.695wxwxwx2wx--1009.7 987.9----wx
1999-08-11 22:00:00 16.7--- 15.9 16.295wxwxwx2wx--1009.6 987.8----wx
1999-08-11 23:00:00 16.4--- 15.8 16.096wxwxwx4wx--1009.7 987.8----wx

 

Źródłem pochodzenia danych jest Instytut Meteorologii i Gospodarki Wodnej – Państwowy Instytut Badawczy. Dane Instytutu Meteorologii i Gospodarki Wodnej – Państwowego Instytutu Badawczego zostały przetworzone.

Dane źródłowe można odnaleźć na stronie https://dane.imgw.pl